createdAt,value
2022-10-28T00:01:08.749Z,3.80
2022-10-28T00:03:44.235Z,4.10
2022-10-28T00:06:15.059Z,3.60
2022-10-28T00:08:42.796Z,3.53
2022-10-28T00:11:22.682Z,4.13
2022-10-28T00:13:52.340Z,4.37
2022-10-28T00:16:23.877Z,4.07
2022-10-28T00:18:53.719Z,4.17
2022-10-28T00:21:26.033Z,4.60
2022-10-28T00:23:53.444Z,4.00
2022-10-28T00:26:26.181Z,4.40
2022-10-28T00:29:02.437Z,4.93
2022-10-28T00:31:31.045Z,3.70
2022-10-28T00:34:00.424Z,3.97
2022-10-28T00:36:33.217Z,3.90
2022-10-28T00:39:01.650Z,3.80
2022-10-28T00:41:32.086Z,3.90
2022-10-28T00:44:01.981Z,4.00
2022-10-28T00:46:37.906Z,4.30
2022-10-28T00:49:15.056Z,3.57
2022-10-28T00:51:46.224Z,4.43
2022-10-28T00:54:14.203Z,4.07
2022-10-28T00:56:46.161Z,3.77
2022-10-28T00:59:26.612Z,4.07
2022-10-28T01:01:54.379Z,3.40
2022-10-28T01:04:22.538Z,4.10
2022-10-28T01:06:50.517Z,4.47
2022-10-28T01:09:17.960Z,3.83
2022-10-28T01:12:23.204Z,4.90
2022-10-28T01:15:10.264Z,4.67
2022-10-28T01:17:57.530Z,3.70
2022-10-28T01:20:44.266Z,3.57
2022-10-28T01:23:33.941Z,3.97
2022-10-28T01:26:23.828Z,3.57
2022-10-28T01:29:18.919Z,3.57
2022-10-28T01:31:59.671Z,4.10
2022-10-28T01:34:44.198Z,4.70
2022-10-28T01:37:15.453Z,3.70
2022-10-28T01:40:22.605Z,4.03
2022-10-28T01:43:09.141Z,4.07
2022-10-28T01:45:51.388Z,4.10
2022-10-28T01:48:33.473Z,3.60
2022-10-28T01:51:20.975Z,4.50
2022-10-28T01:53:52.483Z,4.20
2022-10-28T01:56:26.995Z,4.13
2022-10-28T01:58:57.749Z,4.63
2022-10-28T02:01:27.470Z,4.40
2022-10-28T02:03:56.310Z,4.60
2022-10-28T02:06:26.918Z,4.20
2022-10-28T02:09:15.634Z,4.13
2022-10-28T02:11:43.073Z,4.77
2022-10-28T02:14:38.749Z,4.50
2022-10-28T02:17:34.147Z,3.80
2022-10-28T02:20:16.586Z,4.30
2022-10-28T02:22:50.846Z,4.60
2022-10-28T02:25:35.331Z,3.83
2022-10-28T02:28:08.960Z,4.70
2022-10-28T02:30:45.501Z,3.83
2022-10-28T02:33:17.859Z,4.47
2022-10-28T02:35:58.658Z,4.20
2022-10-28T02:38:53.146Z,4.87
2022-10-28T02:41:45.854Z,4.37
2022-10-28T02:44:18.584Z,4.80
2022-10-28T02:46:48.596Z,5.20
2022-10-28T02:49:15.883Z,4.27
2022-10-28T02:51:55.745Z,4.90
2022-10-28T02:54:28.262Z,4.27
2022-10-28T02:57:10.815Z,4.33
2022-10-28T02:59:37.962Z,4.20
2022-10-28T03:02:05.286Z,4.70
2022-10-28T03:04:32.479Z,4.93
2022-10-28T03:07:00.016Z,4.70
2022-10-28T03:09:27.166Z,4.67
2022-10-28T03:11:54.290Z,5.23
2022-10-28T03:14:21.417Z,4.50
2022-10-28T03:16:48.590Z,4.87
2022-10-28T03:19:15.726Z,4.97
2022-10-28T03:21:42.876Z,4.50
2022-10-28T03:24:10.058Z,4.23
2022-10-28T03:26:37.293Z,4.27
2022-10-28T03:29:04.492Z,4.83
2022-10-28T03:31:31.642Z,3.90
2022-10-28T03:33:58.777Z,4.57
2022-10-28T03:36:25.959Z,4.07
2022-10-28T03:38:53.449Z,5.37
2022-10-28T03:41:20.679Z,4.03
2022-10-28T03:43:47.794Z,3.83
2022-10-28T03:46:15.095Z,4.07
2022-10-28T03:48:42.318Z,4.10
2022-10-28T03:51:09.889Z,4.40
2022-10-28T03:53:37.245Z,4.20
2022-10-28T03:56:04.787Z,4.60
2022-10-28T03:58:32.015Z,5.07
2022-10-28T04:00:59.873Z,4.77
2022-10-28T04:03:27.074Z,4.40
2022-10-28T04:05:54.477Z,4.67
2022-10-28T04:08:22.051Z,4.53
2022-10-28T04:10:49.296Z,4.30
2022-10-28T04:13:17.223Z,5.07
2022-10-28T04:15:44.878Z,5.20
2022-10-28T04:18:12.248Z,4.77
2022-10-28T04:20:39.983Z,4.83
2022-10-28T04:23:07.124Z,5.60
2022-10-28T04:25:34.329Z,5.07
2022-10-28T04:28:01.468Z,5.40
2022-10-28T04:30:28.679Z,5.47
2022-10-28T04:32:55.848Z,5.20
2022-10-28T04:35:26.019Z,6.10
2022-10-28T04:37:53.339Z,5.90
2022-10-28T04:40:21.154Z,5.13
2022-10-28T04:42:48.288Z,4.83
2022-10-28T04:45:15.593Z,6.00
2022-10-28T04:47:42.761Z,5.53
2022-10-28T04:50:09.961Z,5.40
2022-10-28T04:52:37.133Z,6.82
2022-10-28T04:55:04.690Z,6.57
2022-10-28T04:57:32.859Z,5.60
2022-10-28T04:59:59.978Z,5.90
2022-10-28T05:02:27.553Z,5.70
2022-10-28T05:04:54.812Z,5.83
2022-10-28T05:07:23.559Z,6.00
2022-10-28T05:09:51.274Z,7.03
2022-10-28T05:12:18.421Z,6.23
2022-10-28T05:14:47.223Z,6.60
2022-10-28T05:17:16.274Z,6.43
2022-10-28T05:19:45.364Z,6.07
2022-10-28T05:22:12.555Z,5.87
2022-10-28T05:24:40.055Z,6.20
2022-10-28T05:27:07.241Z,6.40
2022-10-28T05:29:34.560Z,6.33
2022-10-28T05:32:02.325Z,5.93
2022-10-28T05:34:29.502Z,5.40
2022-10-28T05:36:56.798Z,5.80
2022-10-28T05:39:24.203Z,7.22
2022-10-28T05:41:51.331Z,6.83
2022-10-28T05:44:18.528Z,6.40
2022-10-28T05:46:46.068Z,6.43
2022-10-28T05:49:13.238Z,6.30
2022-10-28T05:51:40.361Z,6.40
2022-10-28T05:54:07.743Z,6.90
2022-10-28T05:56:34.975Z,6.77
2022-10-28T05:59:02.182Z,5.43
2022-10-28T06:01:34.144Z,7.03
2022-10-28T06:04:01.469Z,7.07
2022-10-28T06:06:29.371Z,6.50
2022-10-28T06:08:57.024Z,6.70
2022-10-28T06:11:22.730Z,7.87
2022-10-28T06:13:50.078Z,6.40
2022-10-28T06:16:17.306Z,6.23
2022-10-28T06:18:44.449Z,6.10
2022-10-28T06:21:11.677Z,6.63
2022-10-28T06:23:38.915Z,7.17
2022-10-28T06:26:06.113Z,7.78
2022-10-28T06:28:33.270Z,6.80
2022-10-28T06:31:02.130Z,6.93
2022-10-28T06:33:29.882Z,6.67
2022-10-28T06:35:58.273Z,7.30
2022-10-28T06:38:26.891Z,7.00
2022-10-28T06:40:57.866Z,6.90
2022-10-28T06:43:25.125Z,7.10
2022-10-28T06:45:55.293Z,6.53
2022-10-28T06:48:24.314Z,7.40
2022-10-28T06:50:51.545Z,6.70
2022-10-28T06:53:18.772Z,7.50
2022-10-28T06:55:52.912Z,6.80
2022-10-28T06:58:20.809Z,7.27
2022-10-28T07:00:48.379Z,6.67
2022-10-28T07:03:16.093Z,6.60
2022-10-28T07:05:43.361Z,6.50
2022-10-28T07:08:10.681Z,7.47
2022-10-28T07:10:37.945Z,6.47
2022-10-28T07:13:05.261Z,7.10
2022-10-28T07:15:32.486Z,6.53
2022-10-28T07:17:59.982Z,5.63
2022-10-28T07:20:28.114Z,6.40
2022-10-28T07:23:00.130Z,5.47
2022-10-28T07:25:29.002Z,6.10
2022-10-28T07:27:59.550Z,5.37
2022-10-28T07:30:27.924Z,5.93
2022-10-28T07:32:56.074Z,5.50
2022-10-28T07:35:23.653Z,4.97
2022-10-28T07:37:51.222Z,4.80
2022-10-28T07:40:19.495Z,4.20
2022-10-28T07:42:47.107Z,4.67
2022-10-28T07:45:14.927Z,3.83
2022-10-28T07:47:42.421Z,4.80
2022-10-28T07:50:10.931Z,4.90
2022-10-28T07:52:38.781Z,4.53
2022-10-28T07:55:07.711Z,4.70
2022-10-28T07:57:35.383Z,4.03
2022-10-28T08:00:05.503Z,3.50
2022-10-28T08:02:38.050Z,3.70
2022-10-28T08:05:05.839Z,4.40
2022-10-28T08:07:36.201Z,4.33
2022-10-28T08:10:10.240Z,4.03
2022-10-28T08:12:37.514Z,4.03
2022-10-28T08:15:05.544Z,4.60
2022-10-28T08:17:32.689Z,3.60
2022-10-28T08:19:59.808Z,4.13
2022-10-28T08:22:28.010Z,4.40
2022-10-28T08:24:55.172Z,3.80
2022-10-28T08:27:23.437Z,3.67
2022-10-28T08:29:50.582Z,4.20
2022-10-28T08:32:17.718Z,3.37
2022-10-28T08:34:44.988Z,3.93
2022-10-28T08:37:12.225Z,3.80
2022-10-28T08:39:39.582Z,4.87
2022-10-28T08:42:41.172Z,4.40
2022-10-28T08:45:21.796Z,3.23
2022-10-28T08:48:15.193Z,3.37
2022-10-28T08:50:56.377Z,3.47
2022-10-28T08:53:31.632Z,3.00
2022-10-28T08:56:21.967Z,3.60
2022-10-28T08:58:51.943Z,3.53
2022-10-28T09:01:31.016Z,2.93
2022-10-28T09:04:02.408Z,3.10
2022-10-28T09:06:30.677Z,3.40
2022-10-28T09:08:58.946Z,3.20
2022-10-28T09:11:38.090Z,2.63
2022-10-28T09:14:26.985Z,3.00
2022-10-28T09:17:16.183Z,3.17
2022-10-28T09:19:56.970Z,2.70
2022-10-28T09:22:31.136Z,2.90
2022-10-28T09:25:32.623Z,3.67
2022-10-28T09:28:09.863Z,2.70
2022-10-28T09:30:48.881Z,3.13
2022-10-28T09:33:56.445Z,2.93
2022-10-28T09:36:36.691Z,3.00
2022-10-28T09:39:06.367Z,3.60
2022-10-28T09:41:42.592Z,2.37
2022-10-28T09:44:38.944Z,2.97
2022-10-28T09:47:34.846Z,3.40
2022-10-28T09:50:07.388Z,2.80
2022-10-28T09:52:39.838Z,2.60
2022-10-28T09:55:17.174Z,3.80
2022-10-28T09:57:44.381Z,3.13
2022-10-28T10:00:13.787Z,3.00
2022-10-28T10:02:42.604Z,2.60
2022-10-28T10:05:17.166Z,2.93
2022-10-28T10:07:52.325Z,2.40
2022-10-28T10:10:32.233Z,3.63
2022-10-28T10:13:03.910Z,2.83
2022-10-28T10:15:36.416Z,2.67
2022-10-28T10:18:07.105Z,2.87
2022-10-28T10:20:52.880Z,3.17
2022-10-28T10:23:33.529Z,2.87
2022-10-28T10:26:12.258Z,3.27
2022-10-28T10:28:48.653Z,2.30
2022-10-28T10:31:21.981Z,2.77
2022-10-28T10:33:51.712Z,2.57
2022-10-28T10:36:23.422Z,2.97
2022-10-28T10:38:56.069Z,3.00
2022-10-28T10:41:42.542Z,2.93
2022-10-28T10:44:22.071Z,2.50
2022-10-28T10:47:09.712Z,3.37
2022-10-28T10:49:37.571Z,2.77
2022-10-28T10:52:17.908Z,3.00
2022-10-28T10:55:07.703Z,3.23
2022-10-28T10:57:35.062Z,3.30
2022-10-28T11:00:05.887Z,3.60
2022-10-28T11:02:37.892Z,2.50
2022-10-28T11:05:10.170Z,3.07
2022-10-28T11:07:45.353Z,3.10
2022-10-28T11:10:22.260Z,3.03
2022-10-28T11:12:55.670Z,3.00
2022-10-28T11:15:29.667Z,2.90
2022-10-28T11:18:16.790Z,3.27
2022-10-28T11:20:54.835Z,2.63
2022-10-28T11:24:01.932Z,3.00
2022-10-28T11:26:34.543Z,3.57
2022-10-28T11:29:09.902Z,2.80
2022-10-28T11:32:13.941Z,2.80
2022-10-28T11:35:05.196Z,3.20
2022-10-28T11:37:42.273Z,2.90
2022-10-28T11:40:22.025Z,3.97
2022-10-28T11:43:22.927Z,3.22
2022-10-28T11:46:13.541Z,4.00
2022-10-28T11:49:09.053Z,3.83
2022-10-28T11:51:56.206Z,3.20
2022-10-28T11:54:29.676Z,2.90
2022-10-28T11:57:07.121Z,3.00
2022-10-28T11:59:54.271Z,2.90
2022-10-28T12:02:49.358Z,3.60
2022-10-28T12:05:37.141Z,3.03
2022-10-28T12:08:44.027Z,3.27
2022-10-28T12:11:35.583Z,3.60
2022-10-28T12:14:24.183Z,3.00
2022-10-28T12:17:12.767Z,3.30
2022-10-28T12:19:52.563Z,2.73
2022-10-28T12:22:30.217Z,2.90
2022-10-28T12:25:03.016Z,2.63
2022-10-28T12:27:34.783Z,3.60
2022-10-28T12:30:30.245Z,3.10
2022-10-28T12:33:23.605Z,3.70
2022-10-28T12:36:34.092Z,3.70
2022-10-28T12:39:21.089Z,3.00
2022-10-28T12:42:12.558Z,2.87
2022-10-28T12:44:40.648Z,2.90
2022-10-28T12:47:27.311Z,3.97
2022-10-28T12:50:20.311Z,3.87
2022-10-28T12:52:57.263Z,2.77
2022-10-28T12:55:41.724Z,2.90
2022-10-28T12:58:30.996Z,3.50
2022-10-28T13:01:08.598Z,3.10
2022-10-28T13:03:36.558Z,3.23
2022-10-28T13:06:11.546Z,2.93
2022-10-28T13:08:46.531Z,3.20
2022-10-28T13:11:38.081Z,3.37
2022-10-28T13:14:43.821Z,3.43
2022-10-28T13:17:29.725Z,3.17
2022-10-28T13:20:01.532Z,3.30
2022-10-28T13:23:12.949Z,3.20
2022-10-28T13:25:59.295Z,3.10
2022-10-28T13:28:35.557Z,3.60
2022-10-28T13:31:05.982Z,2.93
2022-10-28T13:33:37.203Z,3.03
2022-10-28T13:36:17.722Z,4.10
2022-10-28T13:38:59.644Z,3.10
2022-10-28T13:41:36.232Z,3.70
2022-10-28T13:44:09.306Z,3.33
2022-10-28T13:47:01.241Z,3.07
2022-10-28T13:49:35.848Z,2.90
2022-10-28T13:52:13.060Z,3.33
2022-10-28T13:54:43.160Z,4.13
2022-10-28T13:57:34.981Z,3.53
2022-10-28T14:00:17.415Z,3.60
2022-10-28T14:02:47.763Z,3.73
2022-10-28T14:05:25.505Z,3.27
2022-10-28T14:08:02.393Z,3.10
2022-10-28T14:10:40.130Z,4.10
2022-10-28T14:13:20.670Z,3.40
2022-10-28T14:15:50.074Z,3.30
2022-10-28T14:21:05.366Z,4.23
2022-10-28T14:23:32.703Z,3.40
2022-10-28T14:26:04.739Z,3.03
2022-10-28T14:28:32.753Z,3.20
2022-10-28T14:31:11.960Z,4.00
2022-10-28T14:33:44.843Z,3.40
2022-10-28T14:36:18.838Z,3.63
2022-10-28T14:39:24.301Z,3.37
2022-10-28T14:42:13.717Z,3.77
2022-10-28T14:45:07.039Z,3.87
2022-10-28T14:47:59.242Z,3.80
2022-10-28T14:50:39.275Z,3.60
2022-10-28T14:53:13.899Z,3.77
2022-10-28T14:55:46.827Z,3.63
2022-10-28T14:58:14.080Z,3.73
2022-10-28T15:00:48.505Z,4.20
2022-10-28T15:03:16.516Z,4.40
2022-10-28T15:05:43.916Z,4.10
2022-10-28T15:08:11.620Z,4.10
2022-10-28T15:10:43.076Z,3.70
2022-10-28T15:13:18.013Z,3.30
2022-10-28T15:15:54.236Z,3.80
2022-10-28T15:18:24.763Z,3.73
2022-10-28T15:21:09.707Z,3.70
2022-10-28T15:23:36.907Z,3.53
2022-10-28T15:26:12.416Z,3.97
2022-10-28T15:28:41.007Z,3.83
2022-10-28T15:31:09.783Z,4.90
2022-10-28T15:33:39.977Z,3.73
2022-10-28T15:36:18.605Z,4.30
2022-10-28T15:38:48.477Z,4.10
2022-10-28T15:41:21.914Z,4.10
2022-10-28T15:43:58.527Z,4.07
2022-10-28T15:46:26.702Z,4.97
2022-10-28T15:48:59.407Z,4.13
2022-10-28T15:51:27.163Z,3.57
2022-10-28T15:54:09.077Z,3.43
2022-10-28T15:56:54.535Z,4.23
2022-10-28T15:59:24.387Z,4.50
2022-10-28T16:01:55.983Z,4.10
2022-10-28T16:04:23.583Z,3.83
2022-10-28T16:06:54.474Z,4.30
2022-10-28T16:09:34.443Z,3.87
2022-10-28T16:12:10.419Z,4.40
2022-10-28T16:14:44.561Z,4.30
2022-10-28T16:17:15.473Z,4.60
2022-10-28T16:19:52.615Z,5.07
2022-10-28T16:22:21.045Z,4.67
2022-10-28T16:24:50.849Z,4.20
2022-10-28T16:27:27.283Z,4.30
2022-10-28T16:29:54.693Z,5.57
2022-10-28T16:32:35.274Z,4.70
2022-10-28T16:35:04.217Z,4.50
2022-10-28T16:37:33.994Z,4.90
2022-10-28T16:40:01.207Z,4.03
2022-10-28T16:42:28.370Z,4.40
2022-10-28T16:44:55.512Z,5.57
2022-10-28T16:47:26.560Z,5.47
2022-10-28T16:49:57.362Z,4.83
2022-10-28T16:52:27.998Z,5.20
2022-10-28T16:54:56.044Z,4.97
2022-10-28T16:59:56.378Z,5.50
2022-10-28T17:02:31.960Z,4.67
2022-10-28T17:04:59.758Z,4.73
2022-10-28T17:07:28.542Z,4.70
2022-10-28T17:09:56.681Z,6.27
2022-10-28T17:12:26.230Z,5.60
2022-10-28T17:14:53.640Z,5.00
2022-10-28T17:17:20.868Z,4.60
2022-10-28T17:19:48.179Z,4.80
2022-10-28T17:22:15.889Z,3.93
2022-10-28T17:24:43.061Z,4.70
2022-10-28T17:27:10.207Z,5.43
2022-10-28T17:29:38.609Z,4.93
2022-10-28T17:32:08.525Z,4.53
2022-10-28T17:34:36.104Z,5.17
2022-10-28T17:37:03.845Z,5.50
2022-10-28T17:39:31.093Z,5.10
2022-10-28T17:41:58.552Z,4.90
2022-10-28T17:44:25.906Z,4.80
2022-10-28T17:46:53.094Z,5.07
2022-10-28T17:49:20.285Z,4.90
2022-10-28T17:51:47.524Z,5.37
2022-10-28T17:54:14.745Z,5.00
2022-10-28T17:56:42.291Z,6.00
2022-10-28T17:59:09.643Z,5.37
2022-10-28T18:01:37.181Z,5.43
2022-10-28T18:04:05.937Z,5.07
2022-10-28T18:06:33.145Z,4.40
2022-10-28T18:09:00.304Z,4.20
2022-10-28T18:11:29.765Z,4.73
2022-10-28T18:13:57.216Z,4.73
2022-10-28T18:16:27.874Z,4.30
2022-10-28T18:18:55.710Z,4.80
2022-10-28T18:21:24.397Z,5.20
2022-10-28T18:24:03.352Z,4.03
2022-10-28T18:26:32.091Z,5.50
2022-10-28T18:28:59.707Z,4.93
2022-10-28T18:31:26.940Z,5.50
2022-10-28T18:33:54.232Z,5.37
2022-10-28T18:36:23.645Z,5.20
2022-10-28T18:38:51.527Z,4.70
2022-10-28T18:41:25.734Z,5.07
2022-10-28T18:43:58.243Z,5.17
2022-10-28T18:46:26.008Z,4.87
2022-10-28T18:48:54.992Z,4.80
2022-10-28T18:51:22.479Z,5.00
2022-10-28T18:53:50.711Z,5.00
2022-10-28T18:56:23.935Z,5.00
2022-10-28T18:58:51.518Z,5.60
2022-10-28T19:01:24.759Z,4.73
2022-10-28T19:03:57.120Z,6.20
2022-10-28T19:06:26.150Z,4.83
2022-10-28T19:08:55.459Z,5.30
2022-10-28T19:11:29.913Z,5.10
2022-10-28T19:13:58.750Z,5.57
2022-10-28T19:16:27.343Z,5.30
2022-10-28T19:18:59.214Z,6.50
2022-10-28T19:21:27.649Z,6.60
2022-10-28T19:23:55.565Z,5.63
2022-10-28T19:26:23.609Z,5.47
2022-10-28T19:28:51.583Z,5.97
2022-10-28T19:31:21.482Z,6.10
2022-10-28T19:33:48.707Z,6.33
2022-10-28T19:36:25.632Z,6.77
2022-10-28T19:38:53.855Z,6.03
2022-10-28T19:41:23.501Z,5.90
2022-10-28T19:43:57.950Z,6.80
2022-10-28T19:46:27.996Z,5.80
2022-10-28T19:48:58.487Z,6.43
2022-10-28T19:51:30.827Z,6.53
2022-10-28T19:54:00.367Z,6.20
2022-10-28T19:56:32.805Z,6.60
2022-10-28T19:59:02.192Z,6.87
2022-10-28T20:01:31.899Z,6.27
2022-10-28T20:03:59.263Z,5.30
2022-10-28T20:06:30.818Z,6.33
2022-10-28T20:08:58.014Z,6.77
2022-10-28T20:11:27.592Z,6.40
2022-10-28T20:13:56.945Z,6.07
2022-10-28T20:16:25.024Z,6.07
2022-10-28T20:18:54.540Z,6.53
2022-10-28T20:21:23.863Z,5.90
2022-10-28T20:23:56.246Z,6.10
2022-10-28T20:26:29.176Z,6.40
2022-10-28T20:28:57.364Z,6.50
2022-10-28T20:31:27.049Z,6.07
2022-10-28T20:33:56.739Z,6.27
2022-10-28T20:36:34.333Z,7.00
2022-10-28T20:39:04.478Z,6.30
2022-10-28T20:41:33.381Z,7.07
2022-10-28T20:44:01.508Z,6.70
2022-10-28T20:46:29.274Z,7.60
2022-10-28T20:48:56.818Z,6.80
2022-10-28T20:51:27.298Z,7.90
2022-10-28T20:53:54.681Z,7.27
2022-10-28T20:56:34.242Z,6.83
2022-10-28T20:59:02.065Z,6.50
2022-10-28T21:01:32.913Z,7.40
2022-10-28T21:04:04.581Z,7.13
2022-10-28T21:06:32.036Z,7.50
2022-10-28T21:08:59.422Z,7.50
2022-10-28T21:11:27.769Z,7.33
2022-10-28T21:13:58.001Z,6.80
2022-10-28T21:16:26.209Z,6.90
2022-10-28T21:18:54.181Z,7.73
2022-10-28T21:21:23.203Z,7.47
2022-10-28T21:23:50.687Z,8.17
2022-10-28T21:26:18.407Z,6.70
2022-10-28T21:28:49.512Z,7.00
2022-10-28T21:31:18.167Z,7.50
2022-10-28T21:33:46.129Z,7.77
2022-10-28T21:36:18.663Z,7.20
2022-10-28T21:38:45.971Z,7.10
2022-10-28T21:41:19.838Z,7.80
2022-10-28T21:43:49.714Z,7.73
2022-10-28T21:46:18.948Z,7.63
2022-10-28T21:48:46.741Z,7.60
2022-10-28T21:51:15.642Z,7.47
2022-10-28T21:53:44.362Z,7.83
2022-10-28T21:56:17.722Z,7.30
2022-10-28T21:58:47.611Z,7.33
2022-10-28T22:01:17.397Z,7.90
2022-10-28T22:03:44.682Z,7.20
2022-10-28T22:06:12.024Z,7.93
2022-10-28T22:08:39.284Z,7.87
2022-10-28T22:11:10.138Z,7.13
2022-10-28T22:13:37.381Z,7.37
2022-10-28T22:16:07.255Z,6.93
2022-10-28T22:18:36.189Z,7.63
2022-10-28T22:21:05.591Z,7.73
2022-10-28T22:23:33.115Z,7.00
2022-10-28T22:26:04.981Z,7.23
2022-10-28T22:28:32.542Z,7.20
2022-10-28T22:31:05.562Z,7.20
2022-10-28T22:33:33.335Z,7.53
2022-10-28T22:36:03.274Z,7.93
2022-10-28T22:38:30.775Z,6.43
2022-10-28T22:41:14.643Z,7.30
2022-10-28T22:43:43.506Z,7.57
2022-10-28T22:46:11.659Z,8.17
2022-10-28T22:48:38.845Z,7.60
2022-10-28T22:51:06.054Z,7.60
2022-10-28T22:53:33.975Z,7.33
2022-10-28T22:56:01.239Z,7.67
2022-10-28T22:58:28.632Z,8.60
2022-10-28T23:01:25.722Z,8.07
2022-10-28T23:03:54.285Z,7.57
2022-10-28T23:06:23.689Z,8.30
2022-10-28T23:08:50.938Z,8.03
2022-10-28T23:11:19.406Z,7.43
2022-10-28T23:13:50.247Z,8.40
2022-10-28T23:16:17.398Z,8.00
2022-10-28T23:18:44.835Z,7.83
2022-10-28T23:21:14.423Z,8.00
2022-10-28T23:23:42.482Z,8.30
2022-10-28T23:26:10.640Z,7.67
2022-10-28T23:28:37.832Z,8.03
2022-10-28T23:31:06.496Z,7.90
2022-10-28T23:33:34.628Z,8.50
2022-10-28T23:36:03.892Z,7.10
2022-10-28T23:38:31.368Z,8.00
2022-10-28T23:41:01.627Z,8.10
2022-10-28T23:43:30.098Z,8.57
2022-10-28T23:45:58.461Z,8.30
2022-10-28T23:48:27.564Z,8.30
2022-10-28T23:50:55.228Z,7.50
2022-10-28T23:53:23.120Z,7.70
2022-10-28T23:55:51.076Z,7.47
2022-10-28T23:58:21.360Z,8.40
